sensor_id;sensor_type;location;lat;lon;timestamp;pressure;altitude;pressure_sealevel;temperature;humidity
16793;BME280;8513;42.662;23.350;2022-09-03T00:00:15;94871.94;;;17.30;72.04
16793;BME280;8513;42.662;23.350;2022-09-03T00:02:52;94881.28;;;17.26;72.00
16793;BME280;8513;42.662;23.350;2022-09-03T00:05:40;94876.44;;;17.36;72.11
16793;BME280;8513;42.662;23.350;2022-09-03T00:08:19;94882.91;;;17.27;72.27
16793;BME280;8513;42.662;23.350;2022-09-03T00:13:37;94884.97;;;17.25;72.01
16793;BME280;8513;42.662;23.350;2022-09-03T00:16:07;94875.41;;;17.30;71.59
16793;BME280;8513;42.662;23.350;2022-09-03T00:18:42;94878.41;;;17.20;71.51
16793;BME280;8513;42.662;23.350;2022-09-03T00:21:16;94876.78;;;17.19;71.74
16793;BME280;8513;42.662;23.350;2022-09-03T00:23:45;94875.00;;;17.33;71.47
16793;BME280;8513;42.662;23.350;2022-09-03T00:28:43;94873.16;;;17.34;71.49
16793;BME280;8513;42.662;23.350;2022-09-03T00:31:12;94871.94;;;17.36;71.00
16793;BME280;8513;42.662;23.350;2022-09-03T00:33:43;94871.94;;;17.36;70.81
16793;BME280;8513;42.662;23.350;2022-09-03T00:36:19;94877.84;;;17.32;71.20
16793;BME280;8513;42.662;23.350;2022-09-03T00:38:46;94871.06;;;17.23;71.03
16793;BME280;8513;42.662;23.350;2022-09-03T00:57:56;94881.06;;;17.20;70.66
16793;BME280;8513;42.662;23.350;2022-09-03T01:00:27;94885.78;;;17.25;70.94
16793;BME280;8513;42.662;23.350;2022-09-03T01:03:33;94882.91;;;17.27;70.67
16793;BME280;8513;42.662;23.350;2022-09-03T01:06:18;94878.41;;;17.20;70.89
16793;BME280;8513;42.662;23.350;2022-09-03T01:20:11;94873.53;;;17.24;70.34
16793;BME280;8513;42.662;23.350;2022-09-03T01:36:51;94901.75;;;16.97;70.63
16793;BME280;8513;42.662;23.350;2022-09-03T01:39:26;94910.31;;;16.92;70.45
16793;BME280;8513;42.662;23.350;2022-09-03T01:42:26;94903.50;;;16.83;70.96
16793;BME280;8513;42.662;23.350;2022-09-03T01:56:27;94888.00;;;16.87;71.48
16793;BME280;8513;42.662;23.350;2022-09-03T02:01:36;94884.75;;;16.91;70.71
16793;BME280;8513;42.662;23.350;2022-09-03T02:04:15;94886.41;;;16.92;70.73
16793;BME280;8513;42.662;23.350;2022-09-03T02:06:42;94892.53;;;16.93;70.52
16793;BME280;8513;42.662;23.350;2022-09-03T02:09:08;94874.09;;;16.85;70.74
16793;BME280;8513;42.662;23.350;2022-09-03T02:11:34;94883.94;;;16.91;70.49
16793;BME280;8513;42.662;23.350;2022-09-03T02:14:01;94887.03;;;16.94;70.67
16793;BME280;8513;42.662;23.350;2022-09-03T02:16:30;94906.06;;;16.98;70.47
16793;BME280;8513;42.662;23.350;2022-09-03T02:19:17;94900.75;;;16.98;70.45
16793;BME280;8513;42.662;23.350;2022-09-03T02:21:51;94900.34;;;17.01;70.02
16793;BME280;8513;42.662;23.350;2022-09-03T02:24:17;94896.00;;;16.93;70.42
16793;BME280;8513;42.662;23.350;2022-09-03T02:26:43;94895.88;;;17.02;69.93
16793;BME280;8513;42.662;23.350;2022-09-03T02:29:09;94905.63;;;16.94;69.83
16793;BME280;8513;42.662;23.350;2022-09-03T02:31:35;94911.72;;;16.88;69.84
16793;BME280;8513;42.662;23.350;2022-09-03T02:34:01;94903.56;;;16.90;69.79
16793;BME280;8513;42.662;23.350;2022-09-03T02:36:44;94898.84;;;16.92;69.73
16793;BME280;8513;42.662;23.350;2022-09-03T02:39:12;94908.41;;;16.86;69.95
16793;BME280;8513;42.662;23.350;2022-09-03T02:41:38;94909.56;;;17.05;69.32
16793;BME280;8513;42.662;23.350;2022-09-03T02:46:38;94906.06;;;16.98;69.47
16793;BME280;8513;42.662;23.350;2022-09-03T02:49:05;94907.84;;;16.91;69.72
16793;BME280;8513;42.662;23.350;2022-09-03T02:51:33;94913.78;;;16.93;69.34
16793;BME280;8513;42.662;23.350;2022-09-03T02:53:59;94920.50;;;16.89;69.52
16793;BME280;8513;42.662;23.350;2022-09-03T02:56:25;94924.34;;;16.86;69.61
16793;BME280;8513;42.662;23.350;2022-09-03T02:58:52;94922.91;;;16.84;69.15
16793;BME280;8513;42.662;23.350;2022-09-03T03:01:18;94918.28;;;16.71;69.93
16793;BME280;8513;42.662;23.350;2022-09-03T03:03:43;94914.59;;;16.65;70.14
16793;BME280;8513;42.662;23.350;2022-09-03T03:06:09;94920.22;;;16.77;70.06
16793;BME280;8513;42.662;23.350;2022-09-03T03:08:34;94917.78;;;16.82;69.86
16793;BME280;8513;42.662;23.350;2022-09-03T03:11:00;94917.78;;;16.82;69.91
16793;BME280;8513;42.662;23.350;2022-09-03T03:13:26;94918.63;;;16.83;69.90
16793;BME280;8513;42.662;23.350;2022-09-03T03:16:01;94913.69;;;16.80;69.71
16793;BME280;8513;42.662;23.350;2022-09-03T03:18:27;94914.44;;;16.73;70.22
16793;BME280;8513;42.662;23.350;2022-09-03T03:20:52;94918.38;;;16.78;70.05
16793;BME280;8513;42.662;23.350;2022-09-03T03:23:18;94911.47;;;16.83;70.04
16793;BME280;8513;42.662;23.350;2022-09-03T03:25:44;94905.91;;;16.78;69.94
16793;BME280;8513;42.662;23.350;2022-09-03T03:28:09;94913.38;;;16.89;69.74
16793;BME280;8513;42.662;23.350;2022-09-03T03:30:38;94910.88;;;16.88;69.63
16793;BME280;8513;42.662;23.350;2022-09-03T03:33:05;94907.59;;;16.86;69.44
16793;BME280;8513;42.662;23.350;2022-09-03T03:35:30;94917.22;;;16.87;69.56
16793;BME280;8513;42.662;23.350;2022-09-03T03:37:59;94917.16;;;16.80;69.54
16793;BME280;8513;42.662;23.350;2022-09-03T03:40:25;94914.31;;;16.82;69.65
16793;BME280;8513;42.662;23.350;2022-09-03T03:42:50;94918.69;;;16.89;69.59
16793;BME280;8513;42.662;23.350;2022-09-03T03:45:16;94921.66;;;16.80;69.75
16793;BME280;8513;42.662;23.350;2022-09-03T03:47:41;94916.97;;;16.82;69.56
16793;BME280;8513;42.662;23.350;2022-09-03T03:50:07;94923.94;;;16.83;69.37
16793;BME280;8513;42.662;23.350;2022-09-03T03:52:33;94925.19;;;16.65;69.93
16793;BME280;8513;42.662;23.350;2022-09-03T03:54:58;94918.03;;;16.66;69.93
16793;BME280;8513;42.662;23.350;2022-09-03T03:57:23;94913.56;;;16.66;70.02
16793;BME280;8513;42.662;23.350;2022-09-03T03:59:49;94920.69;;;16.66;70.24
16793;BME280;8513;42.662;23.350;2022-09-03T04:02:17;94929.53;;;16.73;70.00
16793;BME280;8513;42.662;23.350;2022-09-03T04:04:43;94932.91;;;16.82;69.68
16793;BME280;8513;42.662;23.350;2022-09-03T04:07:08;94931.72;;;16.84;69.31
16793;BME280;8513;42.662;23.350;2022-09-03T04:09:34;94930.44;;;16.80;69.53
16793;BME280;8513;42.662;23.350;2022-09-03T04:12:00;94916.22;;;16.66;69.82
16793;BME280;8513;42.662;23.350;2022-09-03T04:14:28;94923.41;;;16.72;69.84
16793;BME280;8513;42.662;23.350;2022-09-03T04:16:53;94920.56;;;16.74;69.44
16793;BME280;8513;42.662;23.350;2022-09-03T04:19:19;94923.78;;;16.69;69.58
16793;BME280;8513;42.662;23.350;2022-09-03T04:21:45;94916.47;;;16.71;69.88
16793;BME280;8513;42.662;23.350;2022-09-03T04:24:11;94927.22;;;16.85;69.29
16793;BME280;8513;42.662;23.350;2022-09-03T04:26:37;94927.41;;;16.83;69.43
16793;BME280;8513;42.662;23.350;2022-09-03T04:29:06;94916.03;;;16.89;69.35
16793;BME280;8513;42.662;23.350;2022-09-03T04:31:33;94925.66;;;16.97;69.41
16793;BME280;8513;42.662;23.350;2022-09-03T04:33:59;94926.94;;;17.01;69.28
16793;BME280;8513;42.662;23.350;2022-09-03T04:36:26;94933.03;;;16.95;69.44
16793;BME280;8513;42.662;23.350;2022-09-03T04:38:53;94942.88;;;17.01;69.31
16793;BME280;8513;42.662;23.350;2022-09-03T04:41:23;94944.38;;;16.89;69.46
16793;BME280;8513;42.662;23.350;2022-09-03T04:43:50;94951.38;;;16.90;69.43
16793;BME280;8513;42.662;23.350;2022-09-03T04:46:15;94956.28;;;16.93;69.38
16793;BME280;8513;42.662;23.350;2022-09-03T04:48:41;94954.31;;;17.02;69.10
16793;BME280;8513;42.662;23.350;2022-09-03T04:51:15;94967.00;;;17.06;68.96
16793;BME280;8513;42.662;23.350;2022-09-03T04:53:43;94962.47;;;17.00;69.35
16793;BME280;8513;42.662;23.350;2022-09-03T04:56:18;94970.66;;;17.05;68.85
16793;BME280;8513;42.662;23.350;2022-09-03T04:58:44;94978.88;;;17.10;68.84
16793;BME280;8513;42.662;23.350;2022-09-03T05:01:36;94973.56;;;17.10;68.70
16793;BME280;8513;42.662;23.350;2022-09-03T05:04:03;94972.97;;;17.08;69.37
16793;BME280;8513;42.662;23.350;2022-09-03T05:06:30;94986.84;;;17.10;68.68
16793;BME280;8513;42.662;23.350;2022-09-03T05:08:56;94979.38;;;17.20;68.27
16793;BME280;8513;42.662;23.350;2022-09-03T05:11:22;94985.88;;;17.18;68.26
16793;BME280;8513;42.662;23.350;2022-09-03T05:13:50;94980.53;;;17.11;68.38
16793;BME280;8513;42.662;23.350;2022-09-03T05:16:17;94981.41;;;17.18;67.95
16793;BME280;8513;42.662;23.350;2022-09-03T05:18:43;94977.69;;;17.13;68.39
16793;BME280;8513;42.662;23.350;2022-09-03T05:21:11;94978.06;;;17.10;68.24
16793;BME280;8513;42.662;23.350;2022-09-03T05:23:39;94979.91;;;17.09;68.44
16793;BME280;8513;42.662;23.350;2022-09-03T05:26:06;94971.69;;;17.04;68.70
16793;BME280;8513;42.662;23.350;2022-09-03T05:28:34;94981.19;;;17.13;68.65
16793;BME280;8513;42.662;23.350;2022-09-03T05:33:26;94977.38;;;17.29;67.85
16793;BME280;8513;42.662;23.350;2022-09-03T05:35:53;94979.47;;;17.34;67.86
16793;BME280;8513;42.662;23.350;2022-09-03T05:38:19;94980.72;;;17.38;67.68
16793;BME280;8513;42.662;23.350;2022-09-03T05:40:44;94977.44;;;17.36;67.78
16793;BME280;8513;42.662;23.350;2022-09-03T05:43:10;94984.84;;;17.40;67.08
16793;BME280;8513;42.662;23.350;2022-09-03T05:45:35;94985.50;;;17.49;67.23
16793;BME280;8513;42.662;23.350;2022-09-03T05:48:01;94984.69;;;17.49;67.27
16793;BME280;8513;42.662;23.350;2022-09-03T05:50:27;94992.44;;;17.50;66.67
16793;BME280;8513;42.662;23.350;2022-09-03T05:52:52;94989.69;;;17.37;66.73
16793;BME280;8513;42.662;23.350;2022-09-03T05:55:18;94994.84;;;17.38;66.78
16793;BME280;8513;42.662;23.350;2022-09-03T05:57:43;94994.84;;;17.38;66.70
16793;BME280;8513;42.662;23.350;2022-09-03T06:00:10;94991.22;;;17.46;66.60
16793;BME280;8513;42.662;23.350;2022-09-03T06:02:36;94993.47;;;17.49;66.38
16793;BME280;8513;42.662;23.350;2022-09-03T06:05:02;94985.75;;;17.54;66.13
16793;BME280;8513;42.662;23.350;2022-09-03T06:07:27;94996.41;;;17.61;65.85
16793;BME280;8513;42.662;23.350;2022-09-03T06:09:53;94991.06;;;17.54;65.48
16793;BME280;8513;42.662;23.350;2022-09-03T06:12:18;95002.75;;;17.60;65.42
16793;BME280;8513;42.662;23.350;2022-09-03T06:14:44;95008.19;;;17.80;64.83
16793;BME280;8513;42.662;23.350;2022-09-03T06:17:09;95003.91;;;17.79;65.00
16793;BME280;8513;42.662;23.350;2022-09-03T06:19:37;95000.03;;;17.81;64.79
16793;BME280;8513;42.662;23.350;2022-09-03T06:22:02;94998.06;;;17.97;64.33
16793;BME280;8513;42.662;23.350;2022-09-03T06:24:28;94999.34;;;18.07;63.65
16793;BME280;8513;42.662;23.350;2022-09-03T06:26:57;95002.41;;;18.04;63.16
16793;BME280;8513;42.662;23.350;2022-09-03T06:29:22;95003.97;;;17.92;63.48
16793;BME280;8513;42.662;23.350;2022-09-03T06:31:48;95005.22;;;17.96;63.49
16793;BME280;8513;42.662;23.350;2022-09-03T06:34:14;95014.63;;;17.99;63.32
16793;BME280;8513;42.662;23.350;2022-09-03T06:36:42;95019.41;;;18.10;62.98
16793;BME280;8513;42.662;23.350;2022-09-03T06:39:08;95015.59;;;18.26;62.53
16793;BME280;8513;42.662;23.350;2022-09-03T06:41:33;95013.56;;;18.35;62.12
16793;BME280;8513;42.662;23.350;2022-09-03T06:44:08;95008.00;;;18.29;62.46
16793;BME280;8513;42.662;23.350;2022-09-03T06:46:37;95017.44;;;18.32;62.75
16793;BME280;8513;42.662;23.350;2022-09-03T06:49:03;95014.38;;;18.35;62.75
16793;BME280;8513;42.662;23.350;2022-09-03T06:51:30;95019.09;;;18.46;62.32
16793;BME280;8513;42.662;23.350;2022-09-03T06:54:06;95019.09;;;18.46;62.64
16793;BME280;8513;42.662;23.350;2022-09-03T06:56:34;95015.47;;;18.67;62.09
16793;BME280;8513;42.662;23.350;2022-09-03T06:59:04;95017.38;;;18.80;62.09
16793;BME280;8513;42.662;23.350;2022-09-03T07:01:30;95022.13;;;19.05;60.56
16793;BME280;8513;42.662;23.350;2022-09-03T07:04:01;95019.47;;;19.05;60.63
16793;BME280;8513;42.662;23.350;2022-09-03T07:06:34;95016.97;;;18.83;61.17
16793;BME280;8513;42.662;23.350;2022-09-03T07:09:08;95011.66;;;18.83;61.62
16793;BME280;8513;42.662;23.350;2022-09-03T07:11:34;95031.75;;;18.86;61.34
16793;BME280;8513;42.662;23.350;2022-09-03T07:14:02;95027.03;;;18.88;61.30
16793;BME280;8513;42.662;23.350;2022-09-03T07:16:31;95031.34;;;19.02;60.90
16793;BME280;8513;42.662;23.350;2022-09-03T07:18:57;95040.78;;;19.18;60.11
16793;BME280;8513;42.662;23.350;2022-09-03T07:21:27;95028.91;;;19.27;59.64
16793;BME280;8513;42.662;23.350;2022-09-03T07:23:55;95038.31;;;19.30;59.54
16793;BME280;8513;42.662;23.350;2022-09-03T07:26:28;95039.97;;;19.31;59.66
16793;BME280;8513;42.662;23.350;2022-09-03T07:28:54;95034.25;;;19.41;59.46
16793;BME280;8513;42.662;23.350;2022-09-03T07:31:25;95039.75;;;19.59;59.05
16793;BME280;8513;42.662;23.350;2022-09-03T07:34:00;95053.09;;;19.72;58.67
16793;BME280;8513;42.662;23.350;2022-09-03T07:36:27;95040.59;;;19.66;58.62
16793;BME280;8513;42.662;23.350;2022-09-03T07:38:55;95052.47;;;19.64;58.72
16793;BME280;8513;42.662;23.350;2022-09-03T07:41:21;95047.75;;;19.72;58.67
16793;BME280;8513;42.662;23.350;2022-09-03T07:43:47;95045.09;;;19.72;58.61
16793;BME280;8513;42.662;23.350;2022-09-03T07:46:17;95042.56;;;20.04;57.58
16793;BME280;8513;42.662;23.350;2022-09-03T07:48:48;95046.22;;;20.10;57.99
16793;BME280;8513;42.662;23.350;2022-09-03T07:51:15;95050.75;;;20.09;57.28
16793;BME280;8513;42.662;23.350;2022-09-03T07:53:42;95054.47;;;20.01;57.14
16793;BME280;8513;42.662;23.350;2022-09-03T07:56:09;95060.44;;;20.03;56.71
16793;BME280;8513;42.662;23.350;2022-09-03T07:58:35;95070.97;;;19.78;58.01
16793;BME280;8513;42.662;23.350;2022-09-03T08:01:06;95061.69;;;19.61;58.29
16793;BME280;8513;42.662;23.350;2022-09-03T08:03:36;95059.25;;;19.59;58.24
16793;BME280;8513;42.662;23.350;2022-09-03T08:06:04;95063.16;;;19.77;58.17
16793;BME280;8513;42.662;23.350;2022-09-03T08:08:31;95066.22;;;19.80;57.99
16793;BME280;8513;42.662;23.350;2022-09-03T08:11:07;95061.50;;;19.82;57.99
16793;BME280;8513;42.662;23.350;2022-09-03T08:13:45;95064.59;;;19.79;58.15
16793;BME280;8513;42.662;23.350;2022-09-03T08:16:14;95062.13;;;19.85;58.46
16793;BME280;8513;42.662;23.350;2022-09-03T08:18:41;95069.66;;;20.01;57.64
16793;BME280;8513;42.662;23.350;2022-09-03T08:21:12;95065.31;;;20.20;56.26
16793;BME280;8513;42.662;23.350;2022-09-03T08:23:51;95058.91;;;20.27;56.15
16793;BME280;8513;42.662;23.350;2022-09-03T08:26:18;95062.78;;;20.45;55.82
16793;BME280;8513;42.662;23.350;2022-09-03T08:28:44;95053.72;;;20.46;55.72
16793;BME280;8513;42.662;23.350;2022-09-03T08:31:16;95054.97;;;20.37;56.22
16793;BME280;8513;42.662;23.350;2022-09-03T08:33:48;95060.28;;;20.57;55.92
16793;BME280;8513;42.662;23.350;2022-09-03T08:36:22;95056.72;;;20.69;55.34
16793;BME280;8513;42.662;23.350;2022-09-03T08:38:50;95060.94;;;20.84;55.10
16793;BME280;8513;42.662;23.350;2022-09-03T08:41:32;95063.41;;;20.85;54.76
16793;BME280;8513;42.662;23.350;2022-09-03T08:49:45;95052.72;;;20.85;54.39
16793;BME280;8513;42.662;23.350;2022-09-03T08:52:36;95050.97;;;21.04;53.51
16793;BME280;8513;42.662;23.350;2022-09-03T09:20:23;95069.78;;;21.73;52.17
16793;BME280;8513;42.662;23.350;2022-09-03T09:23:02;95067.28;;;21.78;51.28
16793;BME280;8513;42.662;23.350;2022-09-03T09:25:28;95059.97;;;21.67;51.85
16793;BME280;8513;42.662;23.350;2022-09-03T09:28:12;95068.50;;;22.00;50.99
16793;BME280;8513;42.662;23.350;2022-09-03T09:30:41;95071.25;;;21.94;51.29
16793;BME280;8513;42.662;23.350;2022-09-03T09:33:08;95062.75;;;21.97;51.03
16793;BME280;8513;42.662;23.350;2022-09-03T09:35:34;95069.44;;;22.31;50.69
16793;BME280;8513;42.662;23.350;2022-09-03T09:37:59;95063.25;;;22.49;50.40
16793;BME280;8513;42.662;23.350;2022-09-03T09:40:28;95059.91;;;22.54;49.45
16793;BME280;8513;42.662;23.350;2022-09-03T09:45:45;95054.06;;;22.27;50.23
16793;BME280;8513;42.662;23.350;2022-09-03T09:48:25;95061.09;;;22.21;50.10
16793;BME280;8513;42.662;23.350;2022-09-03T09:51:12;95057.66;;;22.14;50.59
16793;BME280;8513;42.662;23.350;2022-09-03T09:53:39;95066.41;;;22.46;50.43
16793;BME280;8513;42.662;23.350;2022-09-03T09:56:06;95073.38;;;22.65;49.72
16793;BME280;8513;42.662;23.350;2022-09-03T09:58:33;95069.28;;;22.63;49.22
16793;BME280;8513;42.662;23.350;2022-09-03T10:01:20;95067.09;;;22.72;49.32
16793;BME280;8513;42.662;23.350;2022-09-03T10:03:50;95080.44;;;22.60;49.19
16793;BME280;8513;42.662;23.350;2022-09-03T10:06:16;95068.13;;;22.22;49.93
16793;BME280;8513;42.662;23.350;2022-09-03T10:09:12;95074.84;;;22.06;51.10
16793;BME280;8513;42.662;23.350;2022-09-03T10:11:42;95061.78;;;22.35;50.19
16793;BME280;8513;42.662;23.350;2022-09-03T10:14:17;95065.28;;;22.54;49.93
16793;BME280;8513;42.662;23.350;2022-09-03T10:16:51;95057.91;;;22.79;48.86
16793;BME280;8513;42.662;23.350;2022-09-03T10:19:22;95056.28;;;22.78;49.23
16793;BME280;8513;42.662;23.350;2022-09-03T10:22:04;95057.94;;;22.61;49.90
16793;BME280;8513;42.662;23.350;2022-09-03T10:24:47;95066.84;;;22.43;50.59
16793;BME280;8513;42.662;23.350;2022-09-03T10:27:16;95057.44;;;22.52;50.66
16793;BME280;8513;42.662;23.350;2022-09-03T10:29:43;95052.09;;;22.82;51.94
16793;BME280;8513;42.662;23.350;2022-09-03T10:37:41;95051.81;;;23.21;48.79
16793;BME280;8513;42.662;23.350;2022-09-03T10:43:37;95046.69;;;23.31;47.45
16793;BME280;8513;42.662;23.350;2022-09-03T10:46:10;95057.91;;;23.40;47.42
16793;BME280;8513;42.662;23.350;2022-09-03T10:48:52;95056.91;;;23.76;47.17
16793;BME280;8513;42.662;23.350;2022-09-03T10:51:27;95055.13;;;23.70;46.78
16793;BME280;8513;42.662;23.350;2022-09-03T11:00:08;95051.09;;;23.79;46.46
16793;BME280;8513;42.662;23.350;2022-09-03T11:02:51;95050.47;;;23.65;47.17
16793;BME280;8513;42.662;23.350;2022-09-03T11:05:23;95050.84;;;23.81;45.80
16793;BME280;8513;42.662;23.350;2022-09-03T11:08:02;95050.88;;;23.92;45.44
16793;BME280;8513;42.662;23.350;2022-09-03T11:10:33;95046.41;;;23.86;44.92
16793;BME280;8513;42.662;23.350;2022-09-03T11:13:15;95051.44;;;23.83;45.93
16793;BME280;8513;42.662;23.350;2022-09-03T11:15:58;95047.13;;;23.93;45.49
16793;BME280;8513;42.662;23.350;2022-09-03T11:18:33;95056.44;;;24.03;45.52
16793;BME280;8513;42.662;23.350;2022-09-03T11:21:04;95058.56;;;24.12;46.52
16793;BME280;8513;42.662;23.350;2022-09-03T11:23:39;95055.38;;;24.27;44.97
16793;BME280;8513;42.662;23.350;2022-09-03T11:26:11;95061.47;;;24.23;44.33
16793;BME280;8513;42.662;23.350;2022-09-03T11:29:03;95061.56;;;24.16;44.16
16793;BME280;8513;42.662;23.350;2022-09-03T11:32:04;95058.19;;;24.20;44.54
16793;BME280;8513;42.662;23.350;2022-09-03T11:39:39;95047.28;;;24.39;44.19
16793;BME280;8513;42.662;23.350;2022-09-03T11:42:10;95046.69;;;24.60;43.33
16793;BME280;8513;42.662;23.350;2022-09-03T11:44:43;95045.91;;;24.77;43.26
16793;BME280;8513;42.662;23.350;2022-09-03T11:47:16;95049.22;;;24.67;43.31
16793;BME280;8513;42.662;23.350;2022-09-03T11:49:47;95053.50;;;24.80;43.51
16793;BME280;8513;42.662;23.350;2022-09-03T11:52:24;95056.09;;;25.03;42.07
16793;BME280;8513;42.662;23.350;2022-09-03T11:54:50;95056.84;;;25.27;42.45
16793;BME280;8513;42.662;23.350;2022-09-03T11:57:22;95062.81;;;25.46;42.00
16793;BME280;8513;42.662;23.350;2022-09-03T11:59:50;95053.91;;;25.63;40.85
16793;BME280;8513;42.662;23.350;2022-09-03T12:02:28;95050.50;;;25.67;40.18
16793;BME280;8513;42.662;23.350;2022-09-03T12:05:13;95045.00;;;25.79;40.47
16793;BME280;8513;42.662;23.350;2022-09-03T12:08:02;95045.47;;;25.88;41.23
16793;BME280;8513;42.662;23.350;2022-09-03T12:18:32;95031.75;;;26.28;40.05
16793;BME280;8513;42.662;23.350;2022-09-03T12:20:59;95030.78;;;26.39;39.10
16793;BME280;8513;42.662;23.350;2022-09-03T12:25:53;95024.03;;;26.59;38.46
16793;BME280;8513;42.662;23.350;2022-09-03T12:28:21;95021.13;;;26.44;38.74
16793;BME280;8513;42.662;23.350;2022-09-03T12:30:48;95021.03;;;26.55;38.86
16793;BME280;8513;42.662;23.350;2022-09-03T12:33:19;95021.75;;;26.95;38.59
16793;BME280;8513;42.662;23.350;2022-09-03T12:35:59;95020.31;;;27.14;38.60
16793;BME280;8513;42.662;23.350;2022-09-03T12:38:27;95025.94;;;27.35;38.96
16793;BME280;8513;42.662;23.350;2022-09-03T12:40:54;95033.72;;;27.31;38.50
16793;BME280;8513;42.662;23.350;2022-09-03T12:43:26;95026.38;;;27.54;38.00
16793;BME280;8513;42.662;23.350;2022-09-03T12:45:52;95024.25;;;27.61;37.40
16793;BME280;8513;42.662;23.350;2022-09-03T12:48:19;95032.34;;;27.61;37.92
16793;BME280;8513;42.662;23.350;2022-09-03T12:50:47;95016.03;;;27.78;36.14
16793;BME280;8513;42.662;23.350;2022-09-03T12:53:21;95013.91;;;27.85;35.96
16793;BME280;8513;42.662;23.350;2022-09-03T12:55:54;95010.53;;;28.05;36.14
16793;BME280;8513;42.662;23.350;2022-09-03T13:01:15;95013.38;;;27.88;34.80
16793;BME280;8513;42.662;23.350;2022-09-03T13:03:57;95004.22;;;27.89;34.73
16793;BME280;8513;42.662;23.350;2022-09-03T13:06:31;95008.22;;;28.24;34.38
16793;BME280;8513;42.662;23.350;2022-09-03T13:09:00;95000.19;;;27.91;34.84
16793;BME280;8513;42.662;23.350;2022-09-03T13:11:27;94998.34;;;28.45;34.58
16793;BME280;8513;42.662;23.350;2022-09-03T13:14:07;95007.63;;;28.69;34.25
16793;BME280;8513;42.662;23.350;2022-09-03T13:30:09;94997.06;;;45.02;13.56
16793;BME280;8513;42.662;23.350;2022-09-03T13:32:54;94998.94;;;46.53;11.82
16793;BME280;8513;42.662;23.350;2022-09-03T13:35:35;95002.34;;;48.19;10.12
16793;BME280;8513;42.662;23.350;2022-09-03T13:41:00;94988.44;;;38.69;17.91
16793;BME280;8513;42.662;23.350;2022-09-03T13:43:51;94988.16;;;43.07;14.10
16793;BME280;8513;42.662;23.350;2022-09-03T13:46:39;94987.03;;;42.45;13.84
16793;BME280;8513;42.662;23.350;2022-09-03T13:54:59;94995.78;;;52.97;6.54
16793;BME280;8513;42.662;23.350;2022-09-03T13:57:33;95002.91;;;54.61;5.35
16793;BME280;8513;42.662;23.350;2022-09-03T14:00:07;94994.19;;;53.20;6.58
16793;BME280;8513;42.662;23.350;2022-09-03T14:19:20;94978.34;;;37.87;17.87
16793;BME280;8513;42.662;23.350;2022-09-03T14:21:54;94981.28;;;37.39;18.57
16793;BME280;8513;42.662;23.350;2022-09-03T14:24:23;94982.78;;;35.99;20.44
16793;BME280;8513;42.662;23.350;2022-09-03T14:26:56;94975.56;;;36.92;19.31
16793;BME280;8513;42.662;23.350;2022-09-03T14:29:28;94976.94;;;37.46;18.69
16793;BME280;8513;42.662;23.350;2022-09-03T14:41:03;94972.50;;;39.13;17.83
16793;BME280;8513;42.662;23.350;2022-09-03T14:49:18;94992.78;;;48.24;9.28
16793;BME280;8513;42.662;23.350;2022-09-03T15:00:17;94987.94;;;42.65;12.90
16793;BME280;8513;42.662;23.350;2022-09-03T15:10:58;94985.47;;;37.97;17.90
16793;BME280;8513;42.662;23.350;2022-09-03T15:15:57;94992.75;;;41.11;16.04
16793;BME280;8513;42.662;23.350;2022-09-03T15:18:36;95003.38;;;44.11;13.74
16793;BME280;8513;42.662;23.350;2022-09-03T15:24:37;95006.59;;;46.26;10.33
16793;BME280;8513;42.662;23.350;2022-09-03T15:30:11;94991.69;;;39.63;15.52
16793;BME280;8513;42.662;23.350;2022-09-03T15:32:58;94984.19;;;35.65;20.10
16793;BME280;8513;42.662;23.350;2022-09-03T15:40:56;94988.81;;;29.41;32.53
16793;BME280;8513;42.662;23.350;2022-09-03T15:43:32;94991.91;;;28.61;34.96
16793;BME280;8513;42.662;23.350;2022-09-03T15:46:09;94991.44;;;29.00;31.51
16793;BME280;8513;42.662;23.350;2022-09-03T15:51:34;94997.03;;;28.05;36.81
16793;BME280;8513;42.662;23.350;2022-09-03T15:54:15;95007.06;;;27.77;37.87
16793;BME280;8513;42.662;23.350;2022-09-03T15:59:20;95004.31;;;27.30;39.50
16793;BME280;8513;42.662;23.350;2022-09-03T16:01:51;95008.63;;;27.31;39.69
16793;BME280;8513;42.662;23.350;2022-09-03T16:04:26;95003.00;;;27.75;38.55
16793;BME280;8513;42.662;23.350;2022-09-03T16:15:32;95015.34;;;25.23;44.74
16793;BME280;8513;42.662;23.350;2022-09-03T16:23:26;95037.41;;;26.10;42.43
16793;BME280;8513;42.662;23.350;2022-09-03T16:26:00;95035.47;;;25.21;44.43
16793;BME280;8513;42.662;23.350;2022-09-03T16:28:36;95026.94;;;24.55;46.06
16793;BME280;8513;42.662;23.350;2022-09-03T16:36:38;95043.91;;;24.84;45.74
16793;BME280;8513;42.662;23.350;2022-09-03T16:47:04;95048.81;;;24.35;46.54
16793;BME280;8513;42.662;23.350;2022-09-03T16:55:23;95062.25;;;23.64;48.43
16793;BME280;8513;42.662;23.350;2022-09-03T17:04:04;95061.34;;;22.38;51.91
16793;BME280;8513;42.662;23.350;2022-09-03T17:06:56;95069.56;;;22.55;51.89
16793;BME280;8513;42.662;23.350;2022-09-03T17:09:55;95083.47;;;23.12;50.04
16793;BME280;8513;42.662;23.350;2022-09-03T17:15:15;95080.69;;;23.07;50.10
16793;BME280;8513;42.662;23.350;2022-09-03T17:18:06;95091.72;;;22.99;50.20
16793;BME280;8513;42.662;23.350;2022-09-03T17:40:00;95128.88;;;22.40;52.40
16793;BME280;8513;42.662;23.350;2022-09-03T17:42:38;95124.34;;;22.77;50.88
16793;BME280;8513;42.662;23.350;2022-09-03T17:45:19;95129.50;;;22.97;50.32
16793;BME280;8513;42.662;23.350;2022-09-03T17:48:12;95122.84;;;22.81;50.63
16793;BME280;8513;42.662;23.350;2022-09-03T17:50:48;95140.38;;;22.65;51.11
16793;BME280;8513;42.662;23.350;2022-09-03T17:53:21;95142.59;;;22.68;50.85
16793;BME280;8513;42.662;23.350;2022-09-03T17:56:07;95134.09;;;22.72;50.75
16793;BME280;8513;42.662;23.350;2022-09-03T17:58:42;95148.19;;;22.49;50.93
16793;BME280;8513;42.662;23.350;2022-09-03T18:01:18;95145.44;;;21.62;53.22
16793;BME280;8513;42.662;23.350;2022-09-03T18:03:54;95155.50;;;22.16;51.79
16793;BME280;8513;42.662;23.350;2022-09-03T18:09:06;95163.03;;;22.01;52.38